Time;durP1;ratioP1;P1;durP2;ratioP2;P2;SDS_P1;SDS_P2;PMS_P1;PMS_P2;Temp;Humidity;BMP_temperature;BMP_pressure;BME280_temperature;BME280_humidity;BME280_pressure;Samples;Min_cycle;Max_cycle;Signal;HPM_P1;HPM_P2
2021/01/15 00:01:28;;;;;;;19.80;12.13;;;-1.30;99.90;;;;;;12975637;22;20323;-89
2021/01/15 00:06:30;;;;;;;18.83;11.90;;;-1.30;99.90;;;;;;13000891;22;20025;-89
2021/01/15 00:11:33;;;;;;;14.10;10.57;;;-1.40;99.90;;;;;;13000912;22;20105;-89
2021/01/15 00:16:35;;;;;;;17.98;11.15;;;-1.40;99.90;;;;;;13000640;22;20042;-89
2021/01/15 00:21:48;;;;;;;17.17;11.02;;;-1.30;99.90;;;;;;12976338;22;20046;-88
2021/01/15 00:26:49;;;;;;;20.25;11.48;;;-1.20;99.90;;;;;;13002532;22;20042;-89
2021/01/15 00:31:51;;;;;;;19.08;11.57;;;-1.20;99.90;;;;;;12976191;22;20023;-88
2021/01/15 00:36:53;;;;;;;18.35;10.25;;;-1.10;99.90;;;;;;13025419;22;20030;-89
2021/01/15 00:41:54;;;;;;;21.38;11.63;;;-1.20;99.90;;;;;;13000165;22;20023;-88
2021/01/15 00:46:56;;;;;;;19.35;11.05;;;-1.10;99.90;;;;;;13000818;22;20041;-88
2021/01/15 00:51:57;;;;;;;21.25;10.88;;;-1.00;99.90;;;;;;13001596;22;20020;-88
2021/01/15 00:57:03;;;;;;;15.10;10.68;;;-0.90;99.90;;;;;;13025431;22;20016;-88
2021/01/15 01:02:05;;;;;;;14.70;10.57;;;-0.70;99.90;;;;;;13025441;22;20045;-88
2021/01/15 01:07:06;;;;;;;;;;;-0.70;99.90;;;;;;12975569;22;20027;-88
2021/01/15 01:12:08;;;;;;;17.75;10.80;;;-0.60;99.90;;;;;;13000357;22;20347;-88
2021/01/15 01:17:09;;;;;;;16.52;11.82;;;-0.60;99.90;;;;;;13003111;22;20015;-88
2021/01/15 01:22:11;;;;;;;14.27;10.95;;;-0.70;99.90;;;;;;13004874;22;20375;-88
2021/01/15 01:27:13;;;;;;;19.45;11.77;;;-0.70;99.90;;;;;;12978721;22;20034;-88
2021/01/15 01:32:14;;;;;;;17.83;11.23;;;-0.60;99.90;;;;;;12978467;22;20023;-88
2021/01/15 01:37:16;;;;;;;15.68;10.35;;;-0.50;99.90;;;;;;12979476;22;20329;-88
2021/01/15 01:42:17;;;;;;;;;;;-0.60;99.90;;;;;;12979275;22;20019;-88
2021/01/15 01:47:19;;;;;;;13.75;9.48;;;-0.40;99.90;;;;;;12978501;22;20378;-88
2021/01/15 01:52:22;;;;;;;15.32;10.80;;;-0.30;99.90;;;;;;13030870;22;20023;-88
2021/01/15 01:57:24;;;;;;;14.40;10.88;;;-0.40;99.90;;;;;;13003499;22;20015;-88
2021/01/15 02:02:25;;;;;;;;;;;-0.30;99.90;;;;;;13004835;22;20046;-88
2021/01/15 02:07:27;;;;;;;14.40;9.50;;;-0.20;99.90;;;;;;13004298;22;19915;-88
2021/01/15 02:12:59;;;;;;;13.57;9.52;;;-0.30;99.90;;;;;;13029810;22;20019;-89
2021/01/15 02:18:09;;;;;;;17.67;10.82;;;-0.20;99.90;;;;;;13055116;22;20376;-89
2021/01/15 02:23:26;;;;;;;16.17;9.73;;;-0.10;99.90;;;;;;13030072;22;20026;-89
2021/01/15 02:29:14;;;;;;;19.10;11.77;;;-0.10;99.90;;;;;;13029164;22;20023;-89
2021/01/15 02:34:56;;;;;;;17.33;11.05;;;-0.10;99.90;;;;;;12977538;22;20023;-91
2021/01/15 02:40:30;;;;;;;19.70;12.15;;;0.00;99.90;;;;;;12941416;22;20023;-91
2021/01/15 02:45:34;;;;;;;13.68;10.48;;;-0.10;99.90;;;;;;12940967;22;20388;-91
2021/01/15 02:50:37;;;;;;;16.85;11.85;;;0.00;99.90;;;;;;12891803;22;20026;-91
2021/01/15 02:55:38;;;;;;;15.82;10.73;;;-0.10;99.90;;;;;;12916206;22;20043;-92
2021/01/15 03:00:41;;;;;;;14.68;10.15;;;0.00;99.90;;;;;;12939895;22;20020;-92
2021/01/15 03:06:01;;;;;;;16.45;11.35;;;0.00;99.90;;;;;;12941310;22;20325;-92
2021/01/15 03:11:04;;;;;;;13.85;10.23;;;0.10;99.90;;;;;;12990181;22;20020;-91
2021/01/15 03:16:08;;;;;;;14.93;10.60;;;0.00;99.90;;;;;;12914677;22;20392;-92
2021/01/15 03:21:12;;;;;;;15.30;10.43;;;0.10;99.90;;;;;;12941851;22;20047;-92
2021/01/15 03:26:14;;;;;;;16.65;12.02;;;0.00;99.90;;;;;;12915224;22;20477;-92
2021/01/15 03:31:15;;;;;;;16.05;9.90;;;0.00;99.90;;;;;;12928810;22;20075;-92
2021/01/15 03:36:17;;;;;;;;;;;0.10;99.90;;;;;;12878969;23;20027;-92
2021/01/15 03:41:18;;;;;;;21.25;11.85;;;0.00;99.90;;;;;;12899564;23;19915;-92
2021/01/15 03:46:22;;;;;;;;;;;0.10;99.90;;;;;;12852726;23;20020;-92
2021/01/15 03:51:24;;;;;;;19.10;11.48;;;0.10;99.90;;;;;;12876292;23;20252;-92
2021/01/15 03:56:25;;;;;;;19.83;12.15;;;0.10;99.90;;;;;;12852040;23;20023;-92
2021/01/15 04:01:27;;;;;;;;;;;0.10;99.90;;;;;;12852962;23;20016;-92
2021/01/15 04:06:29;;;;;;;19.08;12.05;;;0.10;99.90;;;;;;12900717;23;19915;-93
2021/01/15 04:11:30;;;;;;;;;;;0.10;99.90;;;;;;12851944;23;20027;-93
2021/01/15 04:16:32;;;;;;;21.42;12.57;;;0.10;99.90;;;;;;12875439;23;19970;-92
2021/01/15 04:21:33;;;;;;;21.85;12.68;;;0.20;99.90;;;;;;12850893;23;20024;-93
2021/01/15 04:26:35;;;;;;;19.13;12.88;;;0.10;99.90;;;;;;12826690;23;20026;-93
2021/01/15 04:31:37;;;;;;;;;;;0.10;99.90;;;;;;12852098;23;20020;-92
2021/01/15 04:36:39;;;;;;;20.25;12.05;;;0.10;99.90;;;;;;12875264;23;19919;-93
2021/01/15 04:41:48;;;;;;;19.60;13.93;;;0.10;99.90;;;;;;12876163;23;20020;-93
2021/01/15 04:46:50;;;;;;;22.98;14.13;;;0.20;99.90;;;;;;12850930;23;20024;-92
2021/01/15 04:52:00;;;;;;;25.10;15.50;;;0.20;99.90;;;;;;12876556;23;20066;-92
2021/01/15 04:57:13;;;;;;;17.77;12.60;;;0.20;99.90;;;;;;12875990;23;20379;-93
2021/01/15 05:02:17;;;;;;;21.35;13.85;;;0.10;99.90;;;;;;12876690;23;20023;-93
2021/01/15 05:07:23;;;;;;;20.13;13.65;;;0.10;99.90;;;;;;12875406;23;20030;-93
2021/01/15 05:12:30;;;;;;;21.30;13.85;;;0.10;99.90;;;;;;12876045;23;20074;-93
2021/01/15 05:17:33;;;;;;;19.48;12.63;;;0.10;99.90;;;;;;12875087;23;20346;-93
2021/01/15 05:22:35;;;;;;;19.48;13.20;;;0.10;99.90;;;;;;12875095;23;20020;-93
2021/01/15 05:27:39;;;;;;;19.42;12.98;;;0.20;99.90;;;;;;12850986;23;20031;-92
2021/01/15 05:32:41;;;;;;;22.30;14.75;;;0.20;99.90;;;;;;12828025;23;20020;-93
2021/01/15 05:37:59;;;;;;;23.92;13.35;;;0.20;99.90;;;;;;12875552;23;20027;-93
2021/01/15 05:43:00;;;;;;;25.65;15.88;;;0.20;99.90;;;;;;12850194;23;20515;-93
2021/01/15 05:48:05;;;;;;;19.75;14.73;;;0.20;99.90;;;;;;12850172;23;20039;-93
2021/01/15 05:53:07;;;;;;;24.58;15.43;;;0.20;99.90;;;;;;12877346;23;20087;-93
2021/01/15 05:58:10;;;;;;;;;;;0.30;99.90;;;;;;12875014;23;20330;-93
2021/01/15 06:03:14;;;;;;;31.70;18.10;;;0.20;99.90;;;;;;12878437;23;19922;-93
2021/01/15 06:08:16;;;;;;;32.28;18.92;;;0.20;99.90;;;;;;12878306;23;20055;-93
2021/01/15 06:13:38;;;;;;;24.73;16.80;;;0.20;99.90;;;;;;12877819;23;20020;-91
2021/01/15 06:18:59;;;;;;;32.70;19.63;;;0.30;99.90;;;;;;12877431;23;20075;-92
2021/01/15 06:24:09;;;;;;;28.00;17.57;;;0.20;99.90;;;;;;12927984;23;20075;-92
2021/01/15 06:29:12;;;;;;;30.30;19.30;;;0.20;99.90;;;;;;12877941;23;20067;-92
2021/01/15 06:34:18;;;;;;;27.73;18.33;;;0.10;99.90;;;;;;12877252;23;20020;-92
2021/01/15 06:39:22;;;;;;;30.25;17.58;;;0.20;99.90;;;;;;12854573;23;20067;-92
2021/01/15 06:44:25;;;;;;;25.20;15.93;;;0.20;99.90;;;;;;12852548;23;20357;-92
2021/01/15 06:49:35;;;;;;;31.70;19.13;;;0.20;99.90;;;;;;12852273;23;20024;-92
2021/01/15 06:54:45;;;;;;;29.52;19.35;;;0.20;99.90;;;;;;12855332;23;20017;-92
2021/01/15 06:59:51;;;;;;;27.42;15.98;;;0.20;99.90;;;;;;12879367;23;20020;-92
2021/01/15 07:05:02;;;;;;;31.38;19.60;;;0.10;99.90;;;;;;12879278;23;20032;-92
2021/01/15 07:10:05;;;;;;;26.52;16.60;;;0.20;99.90;;;;;;12903618;23;20025;-92
2021/01/15 07:15:17;;;;;;;32.03;18.17;;;0.20;99.90;;;;;;12876661;23;20016;-92
2021/01/15 07:20:19;;;;;;;23.85;16.27;;;0.20;99.90;;;;;;12853225;23;20017;-91
2021/01/15 07:25:22;;;;;;;28.55;18.13;;;0.20;99.90;;;;;;12877197;23;20082;-92
2021/01/15 07:30:27;;;;;;;35.42;18.73;;;0.30;99.90;;;;;;12877057;23;20024;-92
2021/01/15 07:35:29;;;;;;;29.00;18.13;;;0.20;99.90;;;;;;12877045;23;20075;-92
2021/01/15 07:40:35;;;;;;;31.05;19.17;;;0.20;99.90;;;;;;12876579;23;20066;-92
2021/01/15 07:45:39;;;;;;;35.90;21.42;;;0.30;99.90;;;;;;12876409;23;20102;-92
2021/01/15 07:50:46;;;;;;;32.17;18.85;;;0.20;99.90;;;;;;12926831;23;20020;-92
2021/01/15 07:55:51;;;;;;;32.47;19.42;;;0.20;99.90;;;;;;12852980;23;20020;-92
2021/01/15 08:01:04;;;;;;;34.70;21.60;;;0.20;99.90;;;;;;12926957;23;20024;-92
2021/01/15 08:06:06;;;;;;;33.97;19.83;;;0.20;99.90;;;;;;12855809;23;20024;-92
2021/01/15 08:11:14;;;;;;;;;;;0.10;99.90;;;;;;12851479;23;20099;-92
2021/01/15 08:16:16;;;;;;;30.38;16.95;;;0.20;99.90;;;;;;12877405;23;19970;-92
2021/01/15 08:21:20;;;;;;;32.42;19.17;;;0.30;99.90;;;;;;12851391;23;20377;-92
2021/01/15 08:26:45;;;;;;;38.17;20.55;;;0.30;99.90;;;;;;12853928;23;20082;-92
